AirNav   Bose Proflight Series 2 Wireless Aviation Headset
 
 744 users online  

2PS9 Albert Einstein Medical Center Heliport
Philadelphia, Pennsylvania, USA

GOING TO PHILADELPHIA?


FAA INFORMATION EFFECTIVE 07 NOVEMBER 2019

Location

FAA Identifier: 2PS9
Lat/Long: 40-02-11.4900N 075-08-35.3000W
40-02.191500N 075-08.588333W
40.0365250,-75.1431389
(estimated)
Elevation: 270 ft. / 82 m (estimated)
Variation: 12W (1985)
Time zone: UTC -5 (UTC -4 during Daylight Saving Time)
Zip code: 19141

Heliport Operations

Heliport use: Private use, MEDICAL USE.
Activation date: 01/1987
Control tower: no
ARTCC: NEW YORK CENTER
FSS: WILLIAMSPORT FLIGHT SERVICE STATION
Attendance: CONTINUOUS
Wind indicator: lighted
Segmented circle: no
Lights: FOR PERIMETER & FLOOD LGTS CALL 215-456-6918 10 MIN PRIOR TO ETA.
Beacon: white-green-yellow (heliport)
FOR ROTG BCN CALL 215-456-6918 10 MIN PRIOR TO ETA.

Heliport Communications

WX ASOS at PNE (7 nm NE): PHONE 215-677-0146
WX AWOS-3 at LOM (8 nm NW): 118.925 (215-646-1068)
WX ASOS at PHL (11 nm SW): PHONE 215-492-9617
WX ASOS at VAY (15 nm E): 119.325 (609-267-1176)
WX ASOS at DYL (18 nm N): 118.875 (215-345-0392)

Nearby radio navigation aids

VOR radial/distance  VOR name  Freq  Var
ARDr230/16.9YARDLEY VOR/DME108.2010W
PTWr129/22.1POTTSTOWN VORTAC116.5009W
OODr027/25.1WOODSTOWN VORTAC112.8010W
GXUr286/25.2MC GUIRE VORTAC110.6012W
MXEr083/25.3MODENA VORTAC113.2009W
DQOr055/30.3DUPONT VORTAC114.0010W
VCNr355/31.0CEDAR LAKE VOR/DME115.2010W
RBVr261/31.4ROBBINSVILLE VORTAC113.8010W
CYNr302/35.3COYLE VORTAC113.4010W
SBJr219/37.6SOLBERG VOR/DME112.9010W

 
NDB name  Hdg/Dist  Freq  Var  ID
AMBLER141/8.427512WING .. -. --.
RAINBOW010/37.136311WRNB .-. -. -...
LAKEHURST280/37.139611WNEL -. . .-..

Heliport Services

Runway Information

Helipad H1

Dimensions: 100 x 45 ft. / 30 x 14 m
Surface: concrete
ROOFTOP.
Runway edge lights: PERI
FLOOD LGTS.
Latitude: 40-02.191500N
Longitude: 075-08.588333W
Elevation: 270.0 ft.
Traffic pattern: leftleft

Heliport Ownership and Management from official FAA records

Ownership: Privately-owned
Owner: ALBERT EINSTEIN MEDICAL CNTR
5501 OLD YORK ROAD
PHILADELPHIA, PA 19141
Phone 215-456-8313
Manager: SECURITY DEPARTMENT
YORK & TABOR ROADS
PHILADELPHIA, PA 19141
Phone (215) 456-6918

Additional Remarks

FOR CD CTC PHILADELPHIA APCH AT 800-354-9884.

Instrument Procedures

There are no published instrument procedures at 2PS9.

Some nearby airports with instrument procedures:

KPNE - Northeast Philadelphia Airport (7 nm NE)
KLOM - Wings Field Airport (8 nm NW)
KPHL - Philadelphia International Airport (11 nm SW)
KVAY - South Jersey Regional Airport (15 nm E)
N10 - Perkiomen Valley Airport (17 nm NW)
N14 - Flying W Airport (17 nm E)
KDYL - Doylestown Airport (18 nm N)
19N - Camden County Airport (18 nm SE)
 
Loc | Ops | Rwys | IFR | FBO | Links
Com | Nav | Svcs | Stats | Notes
Area around 2PS9 (Albert Einstein Medical Center Heliport)
 
Road maps at: MapQuest Bing Google
 
Aerial photo
No photo
 
Sectional chart

 
Airport distance calculator
Flying to Albert Einstein Medical Center Heliport? Find the distance to fly.

From to 2PS9

Sunrise and sunset
Times for 20-Nov-2019
 Local
(UTC-5)
 Zulu
(UTC)
Morning civil twilight06:2311:23
Sunrise06:5311:53
Sunset16:4021:40
Evening civil twilight17:0922:09

Current date and time
Zulu (UTC)  20-Nov-2019 11:27:34
Local (UTC-5)  20-Nov-2019 06:27:34
 
METAR
KPNE 
6nm NE 
201054Z AUTO 34006KT 10SM OVC110 06/00 A2994 RMK AO2 SLP138 T00560000
KLOM 
8nm NW 
201115Z AUTO 00000KT 10SM SCT070 BKN120 04/00 A2994 RMK AO2 T00361000
KPHL 
11nm S 
201054Z 33007KT 10SM BKN075 BKN130 OVC160 06/M01 A2993 RMK AO2 SLP136 T00561011 $
KVAY 
16nm SE 
ASOS 119.325 609-267-1176
201054Z AUTO 33005KT 10SM OVC120 06/00 A2992 RMK AO2 SLP131 T00560000
KDYL 
18nm N 
201054Z AUTO 31004KT 10SM FEW120 04/M01 A2991 RMK AO2 SLP132 T00441006
TAF
KPNE 
6nm NE 
200520Z 2006/2106 35005KT P6SM BKN120 FM201000 33010KT P6SM OVC050 FM201600 33012G20KT P6SM BKN050 FM210000 33010KT P6SM SCT050
KPHL 
11nm S 
200830Z 2009/2112 33005KT P6SM BKN070 FM201000 33010KT P6SM OVC060 FM201600 33012G21KT P6SM BKN050 FM210100 32011KT P6SM SCT050
NOTAMs
Click for the latest NOTAMs
NOTAMs are issued by the DoD/FAA and will open in a separate window not controlled by AirNav.

 

 
 

Would you like to see your business listed on this page?

 If your business provides an interesting product or service to pilots, flight crews, aircraft, or users of the Albert Einstein Medical Center Heliport, you should consider listing it here.  To start the listing process, click on the button below
 
Add a business
 

Other Pages about Albert Einstein Medical Center Heliport

Update a link
 
Copyright © AirNav, LLC. All rights reserved. Privacy Policy  Contact